createdAt,value
2022-07-27T00:01:07.815Z,67.62
2022-07-27T00:04:15.278Z,67.52
2022-07-27T00:07:23.564Z,67.93
2022-07-27T00:10:31.372Z,67.72
2022-07-27T00:13:38.820Z,68.02
2022-07-27T00:16:46.415Z,68.43
2022-07-27T00:19:54.438Z,68.66
2022-07-27T00:23:01.973Z,68.77
2022-07-27T00:26:10.275Z,69.48
2022-07-27T00:29:17.831Z,69.68
2022-07-27T00:32:21.330Z,70.18
2022-07-27T00:35:29.610Z,69.98
2022-07-27T00:38:37.151Z,70.29
2022-07-27T00:41:45.693Z,70.18
2022-07-27T00:44:54.145Z,70.29
2022-07-27T00:48:01.665Z,70.29
2022-07-27T00:51:09.659Z,70.59
2022-07-27T00:54:17.416Z,70.79
2022-07-27T00:57:25.333Z,70.39
2022-07-27T01:00:33.646Z,70.05
2022-07-27T01:03:41.645Z,70.29
2022-07-27T01:06:49.829Z,70.65
2022-07-27T01:09:57.750Z,70.18
2022-07-27T01:13:06.387Z,70.69
2022-07-27T01:16:10.240Z,70.79
2022-07-27T01:19:18.234Z,70.79
2022-07-27T01:22:26.605Z,71.00
2022-07-27T01:25:34.554Z,71.30
2022-07-27T01:28:42.387Z,71.50
2022-07-27T01:31:50.810Z,72.01
2022-07-27T01:34:58.888Z,72.11
2022-07-27T01:38:07.353Z,72.11
2022-07-27T01:41:15.709Z,72.55
2022-07-27T01:44:23.206Z,72.21
2022-07-27T01:47:31.343Z,72.55
2022-07-27T01:50:39.538Z,72.65
2022-07-27T01:53:47.531Z,72.96
2022-07-27T01:56:55.622Z,73.36
2022-07-27T02:00:03.823Z,73.90
2022-07-27T02:03:11.997Z,74.74
2022-07-27T02:06:20.475Z,74.65
2022-07-27T02:09:28.484Z,74.51
2022-07-27T02:12:36.625Z,74.34
2022-07-27T02:15:44.933Z,74.65
2022-07-27T02:18:53.011Z,74.95
2022-07-27T02:22:00.940Z,75.19
2022-07-27T02:25:08.718Z,75.39
2022-07-27T02:28:16.992Z,75.59
2022-07-27T02:31:24.437Z,76.24
2022-07-27T02:34:32.714Z,76.54
2022-07-27T02:37:40.675Z,76.54
2022-07-27T02:40:48.185Z,76.85
2022-07-27T02:43:56.457Z,77.15
2022-07-27T02:47:04.217Z,77.25
2022-07-27T02:50:11.787Z,77.25
2022-07-27T02:53:20.263Z,77.15
2022-07-27T02:56:28.320Z,77.36
2022-07-27T02:59:36.273Z,77.36
2022-07-27T03:02:44.760Z,77.15
2022-07-27T03:05:52.428Z,77.15
2022-07-27T03:09:01.204Z,77.45
2022-07-27T03:12:09.436Z,77.56
2022-07-27T03:15:16.927Z,77.76
2022-07-27T03:18:25.204Z,78.10
2022-07-27T03:21:32.964Z,78.41
2022-07-27T03:24:40.716Z,78.61
2022-07-27T03:27:49.069Z,78.85
2022-07-27T03:30:57.059Z,79.16
2022-07-27T03:34:04.889Z,79.36
2022-07-27T03:37:15.268Z,79.46
2022-07-27T03:40:23.373Z,79.97
2022-07-27T03:43:31.456Z,80.27
2022-07-27T03:46:39.051Z,80.17
2022-07-27T03:49:47.400Z,80.37
2022-07-27T03:52:55.304Z,80.27
2022-07-27T03:56:03.405Z,80.17
2022-07-27T03:59:12.078Z,79.83
2022-07-27T04:02:20.262Z,79.72
2022-07-27T04:05:29.404Z,79.63
2022-07-27T04:08:38.188Z,79.28
2022-07-27T04:11:50.966Z,78.84
2022-07-27T04:14:49.351Z,78.44
2022-07-27T04:17:58.048Z,77.99
2022-07-27T04:21:06.583Z,77.45
2022-07-27T04:24:14.861Z,76.74
2022-07-27T04:27:22.547Z,76.40
2022-07-27T04:30:30.506Z,76.20
2022-07-27T04:33:38.833Z,76.09
2022-07-27T04:36:46.858Z,76.40
2022-07-27T04:39:54.836Z,75.89
2022-07-27T04:43:03.035Z,75.55
2022-07-27T04:46:15.109Z,75.55
2022-07-27T04:49:13.408Z,74.84
2022-07-27T04:52:26.418Z,75.01
2022-07-27T04:55:24.938Z,74.60
2022-07-27T04:58:32.810Z,74.51
2022-07-27T05:01:40.782Z,73.86
2022-07-27T05:04:49.055Z,73.56
2022-07-27T05:07:56.554Z,74.00
2022-07-27T05:11:04.965Z,74.00
2022-07-27T05:14:13.319Z,74.60
2022-07-27T05:17:20.805Z,74.71
2022-07-27T05:20:29.204Z,74.40
2022-07-27T05:23:37.434Z,74.81
2022-07-27T05:26:44.890Z,74.81
2022-07-27T05:29:53.042Z,74.54
2022-07-27T05:33:00.539Z,74.91
2022-07-27T05:36:08.706Z,74.07
2022-07-27T05:39:17.342Z,73.66
2022-07-27T05:42:25.354Z,72.41
2022-07-27T05:45:33.211Z,71.80
2022-07-27T05:48:40.894Z,72.01
2022-07-27T05:51:49.653Z,72.01
2022-07-27T05:54:57.927Z,71.26
2022-07-27T05:58:05.734Z,70.86
2022-07-27T06:01:14.052Z,70.76
2022-07-27T06:04:22.122Z,70.36
2022-07-27T06:07:30.072Z,70.66
2022-07-27T06:10:38.354Z,70.46
2022-07-27T06:13:45.943Z,69.75
2022-07-27T06:16:54.325Z,70.05
2022-07-27T06:20:02.725Z,69.62
2022-07-27T06:23:10.254Z,69.51
2022-07-27T06:26:18.698Z,69.01
2022-07-27T06:29:26.703Z,69.01
2022-07-27T06:32:34.110Z,68.98
2022-07-27T06:35:43.128Z,68.37
2022-07-27T06:38:51.665Z,67.46
2022-07-27T06:42:00.024Z,67.66
2022-07-27T06:45:08.374Z,66.99
2022-07-27T06:48:16.126Z,67.36
2022-07-27T06:51:24.112Z,66.96
2022-07-27T06:54:32.607Z,67.06
2022-07-27T06:57:40.130Z,65.68
2022-07-27T07:00:48.202Z,64.67
2022-07-27T07:03:56.387Z,64.24
2022-07-27T07:07:07.262Z,64.21
2022-07-27T07:10:15.161Z,63.30
2022-07-27T07:13:23.105Z,63.81
2022-07-27T07:16:31.373Z,62.97
2022-07-27T07:19:38.924Z,63.37
2022-07-27T07:22:47.179Z,62.24
2022-07-27T07:25:55.531Z,62.66
2022-07-27T07:29:03.065Z,62.94
2022-07-27T07:32:11.601Z,60.35
2022-07-27T07:35:11.518Z,62.19
2022-07-27T07:38:19.389Z,62.49
2022-07-27T07:41:27.812Z,62.16
2022-07-27T07:44:35.722Z,59.22
2022-07-27T07:47:43.627Z,58.41
2022-07-27T07:50:53.410Z,57.60
2022-07-27T07:54:01.586Z,57.65
2022-07-27T07:57:09.338Z,56.59
2022-07-27T08:00:17.109Z,54.68
2022-07-27T08:03:25.303Z,55.58
2022-07-27T08:06:33.181Z,55.68
2022-07-27T08:09:41.001Z,55.48
2022-07-27T08:12:49.411Z,55.03
2022-07-27T08:15:57.596Z,55.13
2022-07-27T08:19:05.285Z,54.91
2022-07-27T08:22:13.294Z,52.84
2022-07-27T08:25:20.969Z,52.80
2022-07-27T08:28:32.192Z,53.32
2022-07-27T08:31:52.289Z,52.69
2022-07-27T08:34:38.414Z,52.37
2022-07-27T08:37:46.559Z,51.34
2022-07-27T08:40:54.401Z,50.63
2022-07-27T08:44:02.315Z,51.04
2022-07-27T08:47:10.501Z,51.31
2022-07-27T08:50:18.455Z,49.76
2022-07-27T08:53:26.367Z,48.53
2022-07-27T08:56:31.807Z,48.66
2022-07-27T08:59:40.029Z,49.78
2022-07-27T09:02:47.608Z,50.51
2022-07-27T09:05:55.897Z,49.63
2022-07-27T09:09:04.231Z,50.38
2022-07-27T09:12:11.829Z,48.43
2022-07-27T09:15:20.194Z,48.98
2022-07-27T09:18:28.445Z,50.51
2022-07-27T09:21:35.915Z,51.31
2022-07-27T09:24:47.222Z,50.18
2022-07-27T09:27:45.760Z,50.59
2022-07-27T09:30:53.880Z,50.26
2022-07-27T09:34:01.950Z,49.63
2022-07-27T09:37:09.441Z,49.76
2022-07-27T09:40:22.559Z,50.96
2022-07-27T09:46:27.241Z,50.68
2022-07-27T09:49:35.066Z,49.54
2022-07-27T09:52:43.029Z,48.58
2022-07-27T09:55:53.342Z,47.94
2022-07-27T09:58:54.183Z,46.19
2022-07-27T10:02:02.560Z,46.31
2022-07-27T10:05:10.706Z,46.72
2022-07-27T10:08:18.915Z,47.86
2022-07-27T10:11:27.443Z,49.31
2022-07-27T10:14:34.874Z,50.06
2022-07-27T10:17:44.148Z,50.68
2022-07-27T10:20:52.495Z,50.86
2022-07-27T10:23:59.908Z,47.93
2022-07-27T10:27:08.116Z,47.76
2022-07-27T10:30:17.566Z,46.19
2022-07-27T10:33:21.463Z,46.09
2022-07-27T10:36:29.949Z,45.67
2022-07-27T10:39:38.063Z,45.50
2022-07-27T10:42:50.360Z,45.72
2022-07-27T10:46:01.359Z,45.42
2022-07-27T10:48:56.165Z,44.93
2022-07-27T10:52:03.938Z,45.98
2022-07-27T10:55:11.868Z,46.28
2022-07-27T10:58:20.300Z,46.14
2022-07-27T11:01:28.238Z,42.71
2022-07-27T11:04:36.118Z,42.52
2022-07-27T11:07:46.377Z,42.32
2022-07-27T11:10:49.484Z,43.29
2022-07-27T11:13:57.763Z,41.24
2022-07-27T11:20:11.024Z,40.83
2022-07-27T11:26:27.119Z,40.70
2022-07-27T11:29:34.963Z,40.52
2022-07-27T11:32:37.694Z,42.57
2022-07-27T11:35:45.299Z,41.83
2022-07-27T11:38:53.954Z,41.41
2022-07-27T11:42:08.680Z,42.03
2022-07-27T11:45:07.000Z,43.59
2022-07-27T11:48:15.080Z,42.19
2022-07-27T11:51:22.920Z,42.97
2022-07-27T11:54:30.787Z,42.05
2022-07-27T11:57:38.654Z,41.16
2022-07-27T12:00:47.076Z,40.83
2022-07-27T12:03:55.026Z,40.44
2022-07-27T12:07:02.765Z,40.64
2022-07-27T12:10:11.089Z,40.00
2022-07-27T12:13:18.604Z,38.25
2022-07-27T12:16:26.890Z,39.96
2022-07-27T12:19:35.102Z,40.72
2022-07-27T12:22:42.556Z,41.27
2022-07-27T12:25:50.888Z,42.19
2022-07-27T12:28:59.277Z,40.66
2022-07-27T12:32:06.773Z,40.28
2022-07-27T12:35:14.980Z,38.43
2022-07-27T12:39:17.637Z,37.62
2022-07-27T12:42:46.597Z,37.62
2022-07-27T12:45:47.965Z,37.93
2022-07-27T12:48:55.813Z,39.16
2022-07-27T12:52:04.338Z,40.68
2022-07-27T12:55:15.460Z,41.19
2022-07-27T12:58:13.525Z,41.53
2022-07-27T13:01:20.938Z,42.18
2022-07-27T13:04:29.315Z,42.77
2022-07-27T13:07:37.094Z,42.27
2022-07-27T13:10:44.968Z,41.47
2022-07-27T13:13:53.173Z,42.07
2022-07-27T13:17:01.136Z,40.94
2022-07-27T13:20:09.162Z,41.22
2022-07-27T13:23:17.173Z,41.63
2022-07-27T13:26:25.204Z,42.46
2022-07-27T13:29:25.115Z,42.57
2022-07-27T13:32:33.670Z,43.90
2022-07-27T13:35:41.305Z,42.46
2022-07-27T13:38:49.931Z,42.21
2022-07-27T13:41:58.221Z,41.30
2022-07-27T13:45:11.312Z,41.93
2022-07-27T13:48:09.333Z,42.03
2022-07-27T13:51:17.420Z,42.05
2022-07-27T13:54:25.928Z,42.46
2022-07-27T13:57:34.786Z,42.55
2022-07-27T14:00:43.227Z,42.13
2022-07-27T14:03:51.350Z,41.74
2022-07-27T14:07:00.037Z,42.76
2022-07-27T14:10:08.270Z,42.97
2022-07-27T14:13:16.705Z,43.15
2022-07-27T14:16:25.053Z,42.55
2022-07-27T14:19:33.425Z,42.35
2022-07-27T14:22:42.197Z,42.33
2022-07-27T14:25:50.105Z,41.36
2022-07-27T14:28:58.997Z,42.55
2022-07-27T14:32:07.891Z,41.66
2022-07-27T14:35:15.633Z,42.18
2022-07-27T14:38:26.957Z,42.07
2022-07-27T14:41:27.601Z,42.27
2022-07-27T14:44:36.169Z,42.46
2022-07-27T14:47:44.344Z,42.05
2022-07-27T14:50:52.546Z,41.93
2022-07-27T14:54:01.338Z,41.52
2022-07-27T14:57:09.348Z,41.82
2022-07-27T15:00:17.680Z,41.50
2022-07-27T15:03:26.129Z,40.48
2022-07-27T15:06:38.840Z,40.04
2022-07-27T15:09:37.063Z,39.54
2022-07-27T15:12:45.543Z,39.04
2022-07-27T15:15:54.196Z,38.93
2022-07-27T15:19:02.374Z,38.31
2022-07-27T15:22:11.752Z,39.04
2022-07-27T15:25:19.654Z,40.18
2022-07-27T15:28:28.218Z,40.66
2022-07-27T15:31:36.093Z,39.25
2022-07-27T15:34:44.013Z,38.95
2022-07-27T15:37:53.896Z,38.43
2022-07-27T15:41:01.911Z,38.33
2022-07-27T15:44:09.949Z,39.34
2022-07-27T15:47:18.057Z,41.60
2022-07-27T15:50:26.216Z,42.21
2022-07-27T15:53:34.600Z,42.11
2022-07-27T15:56:42.141Z,42.21
2022-07-27T15:59:50.251Z,42.93
2022-07-27T16:02:57.994Z,42.81
2022-07-27T16:06:06.316Z,43.01
2022-07-27T16:09:14.804Z,42.91
2022-07-27T16:12:23.417Z,42.71
2022-07-27T16:15:30.851Z,42.71
2022-07-27T16:18:39.469Z,43.81
2022-07-27T16:21:54.924Z,41.55
2022-07-27T16:24:52.621Z,40.95
2022-07-27T16:28:01.000Z,41.17
2022-07-27T16:31:08.564Z,42.11
2022-07-27T16:34:17.266Z,41.99
2022-07-27T16:37:24.693Z,42.11
2022-07-27T16:40:32.763Z,42.76
2022-07-27T16:43:40.777Z,43.35
2022-07-27T16:46:49.036Z,44.07
2022-07-27T16:49:56.989Z,44.27
2022-07-27T16:53:05.762Z,44.27
2022-07-27T16:56:13.712Z,44.70
2022-07-27T16:59:21.153Z,44.21
2022-07-27T17:02:29.523Z,45.12
2022-07-27T17:05:37.475Z,44.82
2022-07-27T17:08:45.503Z,45.31
2022-07-27T17:11:53.747Z,45.12
2022-07-27T17:15:03.335Z,44.51
2022-07-27T17:18:11.860Z,45.00
2022-07-27T17:21:19.813Z,44.62
2022-07-27T17:24:27.792Z,45.21
2022-07-27T17:27:36.045Z,45.34
2022-07-27T17:30:44.733Z,45.76
2022-07-27T17:33:53.167Z,46.04
2022-07-27T17:37:00.973Z,45.94
2022-07-27T17:40:09.169Z,46.36
2022-07-27T17:43:17.950Z,47.26
2022-07-27T17:46:25.709Z,47.28
2022-07-27T17:49:34.457Z,47.08
2022-07-27T17:52:44.324Z,47.49
2022-07-27T17:55:52.104Z,47.28
2022-07-27T17:59:14.288Z,48.41
2022-07-27T18:02:06.939Z,48.11
2022-07-27T18:05:15.117Z,49.01
2022-07-27T18:08:23.718Z,49.13
2022-07-27T18:11:31.556Z,49.46
2022-07-27T18:14:41.021Z,49.76
2022-07-27T18:17:50.081Z,49.96
2022-07-27T18:20:57.694Z,50.48
2022-07-27T18:24:06.465Z,50.48
2022-07-27T18:27:06.655Z,50.99
2022-07-27T18:30:14.824Z,51.09
2022-07-27T18:33:23.006Z,51.31
2022-07-27T18:36:30.707Z,51.61
2022-07-27T18:39:38.682Z,52.04
2022-07-27T18:42:46.146Z,52.44
2022-07-27T18:45:53.947Z,52.64
2022-07-27T18:49:02.773Z,53.07
2022-07-27T18:52:10.433Z,53.17
2022-07-27T18:55:18.666Z,53.20
2022-07-27T18:58:26.487Z,53.60
2022-07-27T19:01:34.424Z,54.63
2022-07-27T19:04:42.769Z,54.63
2022-07-27T19:07:50.203Z,54.55
2022-07-27T19:10:57.861Z,55.16
2022-07-27T19:14:05.264Z,56.16
2022-07-27T19:17:15.002Z,56.90
2022-07-27T19:20:23.335Z,57.73
2022-07-27T19:23:30.764Z,58.16
2022-07-27T19:26:38.774Z,59.20
2022-07-27T19:29:47.007Z,60.33
2022-07-27T19:32:54.816Z,61.27
2022-07-27T19:36:02.657Z,61.27
2022-07-27T19:39:11.055Z,61.91
2022-07-27T19:42:19.031Z,62.21
2022-07-27T19:45:26.311Z,63.12
2022-07-27T19:48:33.747Z,63.42
2022-07-27T19:51:41.585Z,63.85
2022-07-27T19:54:49.445Z,64.70
2022-07-27T19:57:57.019Z,64.59
2022-07-27T20:01:04.799Z,65.10
2022-07-27T20:04:07.158Z,65.50
2022-07-27T20:07:15.562Z,66.04
2022-07-27T20:10:23.503Z,65.64
2022-07-27T20:13:31.090Z,66.58
2022-07-27T20:16:39.479Z,67.05
2022-07-27T20:19:47.305Z,66.75
2022-07-27T20:22:55.339Z,66.24
2022-07-27T20:26:03.763Z,66.24
2022-07-27T20:29:11.603Z,66.67
2022-07-27T20:32:20.222Z,66.67
2022-07-27T20:35:36.610Z,66.88
2022-07-27T20:38:33.067Z,67.29
2022-07-27T20:41:41.280Z,66.17
2022-07-27T20:44:49.803Z,64.96
2022-07-27T20:47:57.295Z,66.17
2022-07-27T20:51:05.491Z,65.97
2022-07-27T20:54:13.003Z,66.27
2022-07-27T20:57:21.121Z,66.58
2022-07-27T21:00:29.461Z,66.41
2022-07-27T21:03:37.455Z,66.50
2022-07-27T21:06:45.087Z,65.70
2022-07-27T21:09:52.679Z,65.67
2022-07-27T21:13:01.517Z,65.87
2022-07-27T21:16:09.379Z,66.71
2022-07-27T21:19:17.499Z,66.61
2022-07-27T21:22:25.838Z,66.61
2022-07-27T21:25:33.793Z,65.90
2022-07-27T21:28:41.663Z,65.70
2022-07-27T21:31:50.323Z,65.36
2022-07-27T21:34:57.820Z,65.16
2022-07-27T21:38:06.254Z,65.06
2022-07-27T21:41:14.743Z,65.39
2022-07-27T21:44:22.228Z,65.59
2022-07-27T21:47:30.361Z,65.90
2022-07-27T21:50:38.097Z,66.20
2022-07-27T21:53:46.138Z,66.44
2022-07-27T21:56:53.787Z,66.54
2022-07-27T22:00:01.870Z,67.05
2022-07-27T22:03:09.592Z,67.28
2022-07-27T22:06:17.529Z,67.48
2022-07-27T22:09:25.480Z,67.89
2022-07-27T22:12:33.336Z,68.09
2022-07-27T22:14:43.405Z,68.09
2022-07-27T22:17:33.963Z,68.23
2022-07-27T22:20:41.496Z,68.43
2022-07-27T22:23:49.920Z,68.73
2022-07-27T22:26:57.436Z,69.03
2022-07-27T22:30:04.956Z,69.37
2022-07-27T22:33:13.376Z,69.98
2022-07-27T22:36:21.340Z,69.68
2022-07-27T22:39:29.252Z,69.78
2022-07-27T22:42:37.662Z,69.78
2022-07-27T22:45:45.621Z,69.57
2022-07-27T22:48:53.561Z,69.88
2022-07-27T22:52:01.754Z,70.52
2022-07-27T22:55:09.827Z,70.62
2022-07-27T22:58:17.845Z,70.96
2022-07-27T23:01:45.796Z,71.88
2022-07-27T23:04:31.239Z,72.72
2022-07-27T23:07:39.035Z,73.77
2022-07-27T23:10:46.975Z,74.92
2022-07-27T23:13:55.119Z,75.46
2022-07-27T23:17:03.101Z,75.70
2022-07-27T23:20:10.928Z,76.21
2022-07-27T23:23:19.445Z,76.42
2022-07-27T23:26:27.838Z,76.76
2022-07-27T23:29:35.969Z,77.06
2022-07-27T23:32:44.057Z,77.06
2022-07-27T23:35:51.542Z,77.17
2022-07-27T23:38:59.928Z,77.61
2022-07-27T23:42:07.880Z,77.51
2022-07-27T23:45:15.939Z,77.61
2022-07-27T23:48:25.103Z,77.91
2022-07-27T23:51:33.490Z,78.53
2022-07-27T23:54:41.079Z,78.73
2022-07-27T23:57:49.395Z,78.97
